Time;durP1;ratioP1;P1;durP2;ratioP2;P2;SDS_P1;SDS_P2;PMS_P1;PMS_P2;Temp;Humidity;BMP_temperature;BMP_pressure;BME280_temperature;BME280_humidity;BME280_pressure;Samples;Min_cycle;Max_cycle;Signal;HPM_P1;HPM_P2
2021/10/25 00:01:10;;;;;;;6.15;4.85;;;;;;;;;;5035126;28;20253;-44
2021/10/25 00:03:36;;;;;;;5.97;4.88;;;;;;;;;;5027098;28;20176;-44
2021/10/25 00:06:04;;;;;;;5.72;4.85;;;;;;;;;;5033601;28;20194;-44
2021/10/25 00:08:30;;;;;;;6.90;5.22;;;;;;;;;;5019426;28;20210;-44
2021/10/25 00:10:56;;;;;;;5.53;4.68;;;;;;;;;;5033680;28;20190;-44
2021/10/25 00:13:22;;;;;;;5.38;4.85;;;;;;;;;;5033503;28;20205;-44
2021/10/25 00:15:48;;;;;;;5.40;4.78;;;;;;;;;;5027514;28;20556;-44
2021/10/25 00:18:14;;;;;;;5.43;4.78;;;;;;;;;;5018147;28;20194;-44
2021/10/25 00:20:40;;;;;;;4.93;4.35;;;;;;;;;;5031043;28;20215;-45
2021/10/25 00:23:07;;;;;;;5.35;4.40;;;;;;;;;;5022815;28;20177;-44
2021/10/25 00:25:34;;;;;;;5.25;4.65;;;;;;;;;;5024179;28;20194;-44
2021/10/25 00:28:00;;;;;;;6.15;4.70;;;;;;;;;;5024456;28;20215;-44
2021/10/25 00:30:26;;;;;;;4.78;4.22;;;;;;;;;;5031310;28;20221;-44
2021/10/25 00:32:52;;;;;;;5.25;4.45;;;;;;;;;;5034536;28;20195;-44
2021/10/25 00:35:19;;;;;;;4.45;4.05;;;;;;;;;;5032612;28;20547;-44
2021/10/25 00:37:45;;;;;;;4.63;4.20;;;;;;;;;;5019674;28;20180;-44
2021/10/25 00:40:11;;;;;;;4.35;3.95;;;;;;;;;;5028008;28;20190;-44
2021/10/25 00:42:37;;;;;;;5.63;4.32;;;;;;;;;;5027094;28;20259;-44
2021/10/25 00:45:03;;;;;;;5.63;4.38;;;;;;;;;;5016505;28;20253;-44
2021/10/25 00:47:29;;;;;;;4.57;4.05;;;;;;;;;;5032064;28;20230;-45
2021/10/25 00:49:55;;;;;;;5.32;4.00;;;;;;;;;;5029673;28;20184;-45
2021/10/25 00:52:21;;;;;;;4.57;4.13;;;;;;;;;;5015462;28;20186;-44
2021/10/25 00:54:47;;;;;;;4.32;3.92;;;;;;;;;;5014617;28;20212;-45
2021/10/25 00:57:13;;;;;;;4.15;3.70;;;;;;;;;;5014937;28;20200;-45
2021/10/25 00:59:39;;;;;;;5.20;4.30;;;;;;;;;;5022380;28;20195;-45
2021/10/25 01:02:05;;;;;;;4.07;3.47;;;;;;;;;;5018560;28;20246;-44
2021/10/25 01:04:32;;;;;;;4.78;3.90;;;;;;;;;;5032937;28;20172;-44
2021/10/25 01:06:59;;;;;;;4.45;4.05;;;;;;;;;;5030219;28;20186;-45
2021/10/25 01:09:25;;;;;;;3.88;3.47;;;;;;;;;;5026992;28;20195;-45
2021/10/25 01:11:52;;;;;;;4.18;3.78;;;;;;;;;;5015175;28;20590;-44
2021/10/25 01:14:18;;;;;;;3.92;3.55;;;;;;;;;;5033422;28;20245;-44
2021/10/25 01:16:44;;;;;;;4.30;3.90;;;;;;;;;;5026987;28;20180;-44
2021/10/25 01:19:10;;;;;;;4.53;3.70;;;;;;;;;;5027947;28;20193;-44
2021/10/25 01:21:36;;;;;;;4.20;3.55;;;;;;;;;;5032587;28;20183;-44
2021/10/25 01:24:03;;;;;;;4.15;3.58;;;;;;;;;;5023072;28;20564;-44
2021/10/25 01:26:29;;;;;;;3.28;3.00;;;;;;;;;;5017546;28;20188;-44
2021/10/25 01:28:55;;;;;;;4.03;3.47;;;;;;;;;;5036209;28;20218;-44
2021/10/25 01:31:23;;;;;;;3.92;3.35;;;;;;;;;;5037851;28;20172;-44
2021/10/25 01:33:50;;;;;;;4.05;3.30;;;;;;;;;;5030762;28;20214;-44
2021/10/25 01:36:16;;;;;;;5.15;3.40;;;;;;;;;;5020601;28;20177;-44
2021/10/25 01:38:42;;;;;;;4.03;3.30;;;;;;;;;;5033476;28;20195;-44
2021/10/25 01:41:08;;;;;;;3.80;3.38;;;;;;;;;;5036801;28;20221;-44
2021/10/25 01:43:35;;;;;;;3.88;3.40;;;;;;;;;;5024774;28;20463;-45
2021/10/25 01:46:02;;;;;;;4.60;3.58;;;;;;;;;;5028303;28;20467;-44
2021/10/25 01:48:28;;;;;;;3.50;3.20;;;;;;;;;;5032033;28;20208;-44
2021/10/25 01:50:54;;;;;;;3.40;3.10;;;;;;;;;;5030570;28;20191;-44
2021/10/25 01:53:21;;;;;;;3.28;2.97;;;;;;;;;;5025108;28;20188;-44
2021/10/25 01:55:51;;;;;;;3.60;3.10;;;;;;;;;;5018289;28;20173;-44
2021/10/25 01:58:18;;;;;;;4.57;3.53;;;;;;;;;;5019402;28;20275;-44
2021/10/25 02:00:44;;;;;;;3.38;2.97;;;;;;;;;;5018137;28;20331;-44
2021/10/25 02:03:10;;;;;;;3.53;3.20;;;;;;;;;;5026937;28;20200;-44
2021/10/25 02:05:39;;;;;;;4.03;3.33;;;;;;;;;;5028975;28;20254;-44
2021/10/25 02:08:06;;;;;;;3.10;2.90;;;;;;;;;;5033443;28;20205;-44
2021/10/25 02:10:32;;;;;;;3.65;3.05;;;;;;;;;;5024259;28;20189;-44
2021/10/25 02:12:58;;;;;;;3.92;3.05;;;;;;;;;;5024119;28;20180;-44
2021/10/25 02:15:24;;;;;;;3.75;3.40;;;;;;;;;;5036391;28;20180;-44
2021/10/25 02:17:50;;;;;;;3.83;3.33;;;;;;;;;;5032176;28;20200;-44
2021/10/25 02:20:16;;;;;;;3.55;3.22;;;;;;;;;;5017744;28;20195;-44
2021/10/25 02:22:42;;;;;;;3.70;3.03;;;;;;;;;;5021114;28;20603;-44
2021/10/25 02:25:08;;;;;;;3.15;2.85;;;;;;;;;;5035815;28;20226;-44
2021/10/25 02:27:34;;;;;;;3.05;2.85;;;;;;;;;;5035487;28;20211;-44
2021/10/25 02:30:00;;;;;;;3.45;3.03;;;;;;;;;;5016491;28;21009;-44
2021/10/25 02:32:27;;;;;;;2.80;2.60;;;;;;;;;;5030284;28;20291;-44
2021/10/25 02:34:53;;;;;;;3.38;2.78;;;;;;;;;;5024027;28;20176;-44
2021/10/25 02:37:19;;;;;;;4.00;3.30;;;;;;;;;;5032407;28;20192;-44
2021/10/25 02:39:46;;;;;;;3.15;2.80;;;;;;;;;;5017433;28;20188;-44
2021/10/25 02:42:12;;;;;;;3.00;2.67;;;;;;;;;;5016425;28;20180;-45
2021/10/25 02:44:38;;;;;;;2.90;2.65;;;;;;;;;;5034925;28;20185;-44
2021/10/25 02:47:04;;;;;;;3.67;2.90;;;;;;;;;;5020892;28;20215;-44
2021/10/25 02:49:31;;;;;;;2.85;2.50;;;;;;;;;;5034048;28;20184;-44
2021/10/25 02:51:57;;;;;;;2.92;2.60;;;;;;;;;;5029084;28;20187;-44
2021/10/25 02:54:24;;;;;;;4.15;3.10;;;;;;;;;;5016558;28;20184;-44
2021/10/25 02:56:52;;;;;;;3.00;2.70;;;;;;;;;;5017638;28;20179;-44
2021/10/25 02:59:18;;;;;;;2.90;2.60;;;;;;;;;;5036539;28;20176;-44
2021/10/25 03:01:44;;;;;;;3.40;3.03;;;;;;;;;;5035661;28;20207;-44
2021/10/25 03:04:11;;;;;;;2.67;2.20;;;;;;;;;;5016717;28;20210;-44
2021/10/25 03:06:37;;;;;;;3.65;2.70;;;;;;;;;;5016893;28;20173;-44
2021/10/25 03:09:04;;;;;;;2.78;2.50;;;;;;;;;;5035757;28;20286;-44
2021/10/25 03:11:30;;;;;;;2.80;2.50;;;;;;;;;;5020195;28;20168;-44
2021/10/25 03:13:56;;;;;;;3.00;2.70;;;;;;;;;;5028830;28;20497;-44
2021/10/25 03:16:23;;;;;;;3.40;2.70;;;;;;;;;;5020073;28;20560;-45
2021/10/25 03:18:49;;;;;;;2.60;2.40;;;;;;;;;;5028620;28;20175;-45
2021/10/25 03:21:17;;;;;;;3.20;2.90;;;;;;;;;;5034143;28;20242;-45
2021/10/25 03:23:43;;;;;;;3.00;2.60;;;;;;;;;;5031148;28;20188;-44
2021/10/25 03:26:09;;;;;;;2.70;2.30;;;;;;;;;;5035036;28;20195;-44
2021/10/25 03:28:35;;;;;;;3.00;2.75;;;;;;;;;;5019883;28;20809;-45
2021/10/25 03:31:02;;;;;;;2.70;2.50;;;;;;;;;;5023124;28;20275;-44
2021/10/25 03:33:30;;;;;;;2.45;2.25;;;;;;;;;;5027683;28;20238;-44
2021/10/25 03:35:57;;;;;;;2.58;2.38;;;;;;;;;;5023525;28;20259;-44
2021/10/25 03:38:23;;;;;;;2.40;2.20;;;;;;;;;;5021788;28;20559;-44
2021/10/25 03:40:51;;;;;;;3.05;2.60;;;;;;;;;;5035764;28;20172;-44
2021/10/25 03:43:20;;;;;;;6.70;2.30;;;;;;;;;;5025897;28;20182;-44
2021/10/25 03:50:49;;;;;;;3.15;2.33;;;;;;;;;;5035105;28;20184;-44
2021/10/25 04:26:11;;;;;;;6.45;2.75;;;;;;;;;;5071646;28;20252;-45
2021/10/25 04:28:38;;;;;;;4.60;2.42;;;;;;;;;;5070931;28;20171;-45
2021/10/25 04:31:05;;;;;;;6.65;2.95;;;;;;;;;;5071074;28;20767;-45
2021/10/25 04:33:31;;;;;;;7.70;3.13;;;;;;;;;;5070693;28;20222;-45
2021/10/25 04:35:57;;;;;;;7.82;2.85;;;;;;;;;;5063868;28;20199;-45
2021/10/25 04:38:24;;;;;;;8.82;3.30;;;;;;;;;;5050958;28;20543;-45
2021/10/25 04:40:50;;;;;;;5.03;3.10;;;;;;;;;;5050360;28;20187;-45
2021/10/25 04:43:17;;;;;;;7.97;3.05;;;;;;;;;;5044954;28;20230;-45
2021/10/25 04:45:43;;;;;;;6.88;3.08;;;;;;;;;;5050781;28;20536;-45
2021/10/25 04:48:10;;;;;;;6.95;3.13;;;;;;;;;;5050629;28;20176;-45
2021/10/25 04:50:36;;;;;;;6.10;3.20;;;;;;;;;;5051138;28;20203;-45
2021/10/25 04:53:03;;;;;;;10.02;3.55;;;;;;;;;;5049857;28;20179;-45
2021/10/25 04:55:29;;;;;;;6.60;3.45;;;;;;;;;;5050648;28;20203;-45
2021/10/25 04:57:55;;;;;;;9.57;3.47;;;;;;;;;;5050349;28;20183;-45
2021/10/25 05:00:21;;;;;;;9.48;3.30;;;;;;;;;;5048242;28;20198;-46
2021/10/25 05:02:47;;;;;;;8.10;3.30;;;;;;;;;;5040291;28;20203;-45
2021/10/25 05:05:13;;;;;;;7.47;3.55;;;;;;;;;;5050190;28;20338;-45
2021/10/25 05:07:39;;;;;;;8.52;3.88;;;;;;;;;;5050319;28;20175;-45
2021/10/25 05:10:05;;;;;;;5.45;2.92;;;;;;;;;;5049546;28;20183;-45
2021/10/25 05:12:32;;;;;;;9.05;3.42;;;;;;;;;;5047118;28;20179;-46
2021/10/25 05:14:58;;;;;;;7.60;3.00;;;;;;;;;;5043954;28;20874;-46
2021/10/25 05:17:25;;;;;;;5.78;3.17;;;;;;;;;;5036628;28;20286;-45
2021/10/25 05:19:54;;;;;;;10.43;2.97;;;;;;;;;;5035651;28;20467;-45
2021/10/25 05:22:20;;;;;;;6.35;2.90;;;;;;;;;;5034030;28;20218;-45
2021/10/25 05:24:47;;;;;;;7.53;2.80;;;;;;;;;;5036339;28;20176;-45
2021/10/25 05:27:14;;;;;;;5.80;3.03;;;;;;;;;;5036973;28;20479;-45
2021/10/25 05:29:41;;;;;;;8.35;2.97;;;;;;;;;;5035610;28;20176;-46
2021/10/25 05:32:07;;;;;;;6.18;3.08;;;;;;;;;;5032290;28;20180;-45
2021/10/25 05:34:34;;;;;;;6.50;2.95;;;;;;;;;;5035683;28;20226;-45
2021/10/25 05:37:01;;;;;;;7.53;3.05;;;;;;;;;;5036617;28;20210;-45
2021/10/25 05:39:27;;;;;;;5.45;2.80;;;;;;;;;;5034037;28;20282;-45
2021/10/25 05:41:53;;;;;;;7.25;3.40;;;;;;;;;;5032320;28;20616;-45
2021/10/25 05:44:21;;;;;;;5.68;3.45;;;;;;;;;;5036267;28;20164;-45
2021/10/25 05:46:46;;;;;;;5.68;2.97;;;;;;;;;;5035640;28;20715;-46
2021/10/25 05:49:12;;;;;;;5.53;3.10;;;;;;;;;;5036704;28;20229;-46
2021/10/25 05:51:38;;;;;;;6.13;3.00;;;;;;;;;;5030255;28;20177;-46
2021/10/25 05:54:05;;;;;;;8.40;3.13;;;;;;;;;;5033523;28;20459;-46
2021/10/25 05:56:32;;;;;;;7.50;3.33;;;;;;;;;;5035492;28;20195;-45
2021/10/25 05:58:58;;;;;;;10.52;3.60;;;;;;;;;;5036383;28;20203;-45
2021/10/25 06:01:29;;;;;;;12.00;3.40;;;;;;;;;;5035320;28;20195;-45
2021/10/25 06:04:17;;;;;;;7.78;4.15;;;;;;;;;;5034411;28;20199;-45
2021/10/25 06:06:43;;;;;;;11.23;4.40;;;;;;;;;;5035804;28;20179;-45
2021/10/25 06:09:10;;;;;;;9.57;4.28;;;;;;;;;;5036122;28;20187;-45
2021/10/25 06:11:37;;;;;;;8.80;4.10;;;;;;;;;;5035775;28;20592;-45
2021/10/25 06:14:05;;;;;;;6.28;3.47;;;;;;;;;;5035263;28;20294;-45
2021/10/25 06:16:42;;;;;;;9.95;4.13;;;;;;;;;;5034932;28;20195;-45
2021/10/25 06:19:10;;;;;;;7.60;3.45;;;;;;;;;;5035425;28;20183;-45
2021/10/25 06:21:37;;;;;;;7.43;3.97;;;;;;;;;;5032832;28;20180;-45
2021/10/25 06:24:03;;;;;;;10.60;4.22;;;;;;;;;;5015886;28;20212;-45
2021/10/25 06:26:29;;;;;;;5.60;3.38;;;;;;;;;;5015019;28;20192;-45
2021/10/25 06:28:55;;;;;;;6.63;3.65;;;;;;;;;;5035514;28;20257;-45
2021/10/25 06:31:21;;;;;;;6.57;3.47;;;;;;;;;;5022190;28;20180;-45
2021/10/25 06:33:48;;;;;;;6.80;3.65;;;;;;;;;;5032835;28;20611;-45
2021/10/25 06:36:17;;;;;;;5.47;3.65;;;;;;;;;;5035801;28;20179;-45
2021/10/25 06:38:51;;;;;;;8.15;3.75;;;;;;;;;;5035966;28;20438;-45
2021/10/25 06:41:21;;;;;;;5.93;3.55;;;;;;;;;;5028809;28;20263;-45
2021/10/25 06:43:48;;;;;;;8.15;3.53;;;;;;;;;;5035122;28;20286;-45
2021/10/25 06:46:15;;;;;;;5.55;3.28;;;;;;;;;;5035197;28;20516;-45
2021/10/25 06:48:41;;;;;;;7.30;3.70;;;;;;;;;;5034093;28;20202;-45
2021/10/25 06:51:07;;;;;;;4.57;3.58;;;;;;;;;;5021569;28;20537;-45
2021/10/25 06:53:33;;;;;;;5.47;3.28;;;;;;;;;;5030460;28;20184;-45
2021/10/25 06:55:59;;;;;;;6.32;3.53;;;;;;;;;;5035199;28;20194;-45
2021/10/25 06:58:25;;;;;;;5.75;3.40;;;;;;;;;;5035056;28;20192;-46
2021/10/25 07:00:51;;;;;;;6.03;3.58;;;;;;;;;;5034044;28;20234;-46
2021/10/25 07:03:18;;;;;;;5.85;3.42;;;;;;;;;;5034486;28;20222;-46
2021/10/25 07:05:44;;;;;;;6.55;3.58;;;;;;;;;;5034239;28;20172;-46
2021/10/25 07:08:13;;;;;;;5.55;3.17;;;;;;;;;;5035398;28;20445;-46
2021/10/25 07:10:40;;;;;;;4.07;3.10;;;;;;;;;;5034983;28;20176;-45
2021/10/25 07:13:06;;;;;;;6.43;3.20;;;;;;;;;;5034364;28;20462;-45
2021/10/25 07:15:35;;;;;;;4.75;3.10;;;;;;;;;;5034710;28;20510;-45
2021/10/25 07:18:13;;;;;;;4.53;3.40;;;;;;;;;;5034490;28;20271;-45
2021/10/25 07:21:26;;;;;;;6.40;3.30;;;;;;;;;;5034586;28;20221;-45
2021/10/25 08:02:22;;;;;;;4.15;3.00;;;;;;;;;;5034145;28;20480;-45
2021/10/25 08:09:50;;;;;;;3.13;2.65;;;;;;;;;;5034315;28;20184;-45
2021/10/25 08:12:18;;;;;;;3.75;2.90;;;;;;;;;;5031515;28;20448;-45
2021/10/25 08:14:50;;;;;;;4.78;3.25;;;;;;;;;;5029833;28;20260;-45
2021/10/25 08:17:21;;;;;;;4.35;3.28;;;;;;;;;;5033997;28;20223;-45
2021/10/25 08:19:48;;;;;;;4.03;3.20;;;;;;;;;;5031971;28;20175;-45
2021/10/25 08:22:16;;;;;;;4.60;3.20;;;;;;;;;;5031488;28;20610;-45
2021/10/25 08:24:43;;;;;;;4.95;2.92;;;;;;;;;;5032775;28;20203;-46
2021/10/25 08:27:10;;;;;;;4.10;3.00;;;;;;;;;;5033946;28;20179;-46
2021/10/25 08:29:36;;;;;;;3.75;2.83;;;;;;;;;;5020692;28;20302;-46
2021/10/25 08:35:01;;;;;;;3.97;2.78;;;;;;;;;;5014251;28;20228;-45
2021/10/25 08:39:57;;;;;;;4.00;2.80;;;;;;;;;;5034442;28;20258;-45
2021/10/25 08:42:24;;;;;;;4.35;2.75;;;;;;;;;;5033822;28;20195;-45
2021/10/25 08:45:07;;;;;;;4.65;2.67;;;;;;;;;;5033053;28;20306;-45
2021/10/25 08:47:44;;;;;;;3.65;2.85;;;;;;;;;;5031871;28;20172;-45
2021/10/25 08:50:12;;;;;;;4.20;2.90;;;;;;;;;;5016868;28;20602;-45
2021/10/25 08:52:39;;;;;;;3.22;2.53;;;;;;;;;;5026287;28;20172;-45
2021/10/25 08:55:07;;;;;;;4.03;2.67;;;;;;;;;;5036752;28;20184;-45
2021/10/25 08:57:33;;;;;;;3.83;2.70;;;;;;;;;;5037377;28;20176;-45
2021/10/25 09:00:00;;;;;;;3.60;2.60;;;;;;;;;;5037652;28;20199;-45
2021/10/25 09:02:27;;;;;;;3.53;2.58;;;;;;;;;;5037232;28;20590;-45
2021/10/25 09:04:57;;;;;;;2.50;2.22;;;;;;;;;;5031931;28;20194;-45
2021/10/25 09:07:23;;;;;;;3.08;2.28;;;;;;;;;;5037091;28;20176;-45
2021/10/25 09:09:49;;;;;;;3.97;2.58;;;;;;;;;;5037226;28;20186;-45
2021/10/25 09:12:16;;;;;;;4.18;2.78;;;;;;;;;;5037112;28;20176;-45
2021/10/25 09:14:42;;;;;;;4.28;2.60;;;;;;;;;;5036245;28;20684;-45
2021/10/25 09:17:09;;;;;;;2.85;2.53;;;;;;;;;;5036599;28;20482;-45
2021/10/25 09:19:37;;;;;;;5.10;2.42;;;;;;;;;;5036451;28;20183;-45
2021/10/25 09:22:11;;;;;;;3.08;2.70;;;;;;;;;;5036987;28;20531;-45
2021/10/25 09:24:37;;;;;;;2.90;2.50;;;;;;;;;;5035703;28;20262;-45
2021/10/25 09:27:06;;;;;;;3.63;2.80;;;;;;;;;;5036951;28;20176;-45
2021/10/25 09:29:34;;;;;;;2.72;2.50;;;;;;;;;;5037169;28;20547;-45
2021/10/25 09:32:07;;;;;;;3.22;2.80;;;;;;;;;;5036583;28;20202;-45
2021/10/25 09:34:37;;;;;;;2.80;2.28;;;;;;;;;;5035848;28;20179;-45
2021/10/25 09:37:15;;;;;;;2.70;2.30;;;;;;;;;;5036627;28;20445;-46
2021/10/25 09:42:25;;;;;;;3.65;2.70;;;;;;;;;;5036709;28;20270;-45
2021/10/25 09:50:39;;;;;;;3.05;2.10;;;;;;;;;;5037013;28;20263;-45
2021/10/25 09:53:06;;;;;;;3.08;2.30;;;;;;;;;;5036296;28;20198;-45
2021/10/25 09:55:41;;;;;;;2.42;2.22;;;;;;;;;;5035901;28;20194;-45
2021/10/25 09:58:16;;;;;;;2.97;2.22;;;;;;;;;;5042703;28;20193;-45
2021/10/25 10:00:43;;;;;;;3.22;2.10;;;;;;;;;;5056661;28;20461;-45
2021/10/25 10:03:09;;;;;;;3.00;2.42;;;;;;;;;;5044056;28;20638;-45
2021/10/25 10:05:37;;;;;;;2.70;2.10;;;;;;;;;;5035678;28;20199;-45
2021/10/25 10:08:04;;;;;;;3.08;2.42;;;;;;;;;;5036230;28;20175;-45
2021/10/25 10:10:30;;;;;;;2.17;1.98;;;;;;;;;;5036143;28;20204;-45
2021/10/25 10:12:56;;;;;;;4.45;2.33;;;;;;;;;;5035692;28;20519;-45
2021/10/25 10:15:25;;;;;;;2.60;2.10;;;;;;;;;;5021797;28;20544;-45
2021/10/25 10:17:53;;;;;;;3.55;2.28;;;;;;;;;;5026360;28;20184;-45
2021/10/25 10:20:26;;;;;;;2.83;2.33;;;;;;;;;;5036058;28;20180;-45
2021/10/25 10:22:56;;;;;;;2.72;2.28;;;;;;;;;;5035250;28;20223;-45
2021/10/25 10:25:28;;;;;;;3.15;2.38;;;;;;;;;;5035216;28;20550;-45
2021/10/25 10:28:03;;;;;;;2.22;1.90;;;;;;;;;;5035473;28;20669;-45
2021/10/25 10:30:30;;;;;;;2.50;2.30;;;;;;;;;;5035489;28;20442;-45
2021/10/25 10:33:03;;;;;;;2.42;2.22;;;;;;;;;;5034194;28;20191;-45
2021/10/25 10:35:40;;;;;;;2.67;2.30;;;;;;;;;;5035356;28;20486;-45
2021/10/25 10:38:06;;;;;;;2.25;2.05;;;;;;;;;;5034566;28;20183;-45
2021/10/25 10:40:39;;;;;;;1.92;1.73;;;;;;;;;;5035814;28;20525;-46
2021/10/25 10:43:08;;;;;;;2.78;2.20;;;;;;;;;;5035084;28;20253;-46
2021/10/25 10:45:33;;;;;;;2.33;2.08;;;;;;;;;;5035216;28;20192;-46
2021/10/25 10:48:01;;;;;;;3.20;2.20;;;;;;;;;;5034903;28;20203;-46
2021/10/25 10:50:34;;;;;;;2.95;2.15;;;;;;;;;;5034471;28;20202;-45
2021/10/25 10:53:50;;;;;;;2.72;2.20;;;;;;;;;;5035131;28;20180;-45
2021/10/25 10:56:07;;;;;;;2.50;1.92;;;;;;;;;;5034499;28;20199;-45
2021/10/25 10:58:49;;;;;;;2.08;1.67;;;;;;;;;;5035242;28;20172;-45
2021/10/25 11:01:15;;;;;;;3.28;2.30;;;;;;;;;;5031355;28;20625;-45
2021/10/25 11:03:42;;;;;;;1.92;1.70;;;;;;;;;;5033964;28;20204;-46
2021/10/25 11:06:11;;;;;;;2.03;1.90;;;;;;;;;;5034494;28;20502;-45
2021/10/25 11:08:39;;;;;;;2.53;2.08;;;;;;;;;;5034648;28;20188;-45
2021/10/25 11:11:07;;;;;;;2.33;1.90;;;;;;;;;;5034359;28;20175;-45
2021/10/25 11:13:41;;;;;;;2.08;1.85;;;;;;;;;;5033684;28;20188;-45
2021/10/25 11:16:11;;;;;;;2.63;2.00;;;;;;;;;;5035117;28;20249;-45
2021/10/25 11:18:42;;;;;;;1.85;1.70;;;;;;;;;;5034464;28;20299;-45
2021/10/25 11:21:12;;;;;;;2.28;1.88;;;;;;;;;;5034411;28;20206;-45
2021/10/25 11:23:43;;;;;;;2.30;2.10;;;;;;;;;;5021334;28;20204;-45
2021/10/25 11:26:10;;;;;;;1.90;1.63;;;;;;;;;;5034266;28;20483;-46
2021/10/25 11:28:36;;;;;;;2.80;1.90;;;;;;;;;;5034865;28;20221;-46
2021/10/25 11:31:03;;;;;;;2.00;1.80;;;;;;;;;;5035175;28;20167;-46
2021/10/25 11:33:30;;;;;;;1.92;1.60;;;;;;;;;;5034154;28;20195;-46
2021/10/25 11:35:57;;;;;;;2.00;1.80;;;;;;;;;;5033867;28;20192;-46
2021/10/25 11:38:23;;;;;;;2.20;1.90;;;;;;;;;;5034572;28;20213;-46
2021/10/25 11:40:49;;;;;;;1.70;1.58;;;;;;;;;;5023990;28;20263;-46
2021/10/25 11:43:15;;;;;;;1.75;1.65;;;;;;;;;;5014815;28;20221;-45
2021/10/25 11:45:41;;;;;;;2.95;1.80;;;;;;;;;;5030449;28;20220;-45
2021/10/25 11:48:07;;;;;;;2.63;1.77;;;;;;;;;;5034349;28;20563;-45
2021/10/25 11:50:34;;;;;;;1.65;1.55;;;;;;;;;;5034504;28;20189;-45
2021/10/25 11:53:02;;;;;;;1.75;1.65;;;;;;;;;;5034384;28;20187;-45
2021/10/25 11:55:35;;;;;;;1.98;1.80;;;;;;;;;;5034514;28;20234;-45
2021/10/25 11:58:03;;;;;;;2.00;1.83;;;;;;;;;;5032162;28;20374;-45
2021/10/25 12:00:30;;;;;;;2.05;1.85;;;;;;;;;;5034428;28;20245;-45
2021/10/25 12:02:57;;;;;;;1.80;1.70;;;;;;;;;;5032761;28;20222;-45
2021/10/25 12:05:24;;;;;;;2.47;1.50;;;;;;;;;;5034370;28;20593;-45
2021/10/25 12:07:52;;;;;;;2.53;1.98;;;;;;;;;;5034636;28;20650;-45
2021/10/25 12:10:19;;;;;;;2.20;1.70;;;;;;;;;;5033736;28;20191;-45
2021/10/25 12:12:45;;;;;;;1.83;1.70;;;;;;;;;;5033998;28;20179;-46
2021/10/25 12:15:15;;;;;;;1.95;1.70;;;;;;;;;;5033647;28;20184;-46
2021/10/25 12:17:42;;;;;;;1.60;1.50;;;;;;;;;;5034335;28;20180;-46
2021/10/25 12:20:10;;;;;;;1.85;1.63;;;;;;;;;;5034576;28;20494;-46
2021/10/25 12:22:37;;;;;;;1.73;1.60;;;;;;;;;;5034142;28;20252;-45
2021/10/25 12:25:04;;;;;;;1.77;1.65;;;;;;;;;;5031244;28;20183;-45
2021/10/25 12:27:35;;;;;;;2.35;1.52;;;;;;;;;;5032577;28;20198;-45
2021/10/25 12:30:06;;;;;;;1.50;1.40;;;;;;;;;;5022946;28;20184;-45
2021/10/25 12:32:33;;;;;;;1.70;1.60;;;;;;;;;;5019994;28;20270;-45
2021/10/25 12:35:00;;;;;;;1.55;1.45;;;;;;;;;;5027783;28;20184;-45
2021/10/25 12:37:30;;;;;;;1.70;1.60;;;;;;;;;;5038105;28;20600;-45
2021/10/25 12:39:56;;;;;;;1.60;1.50;;;;;;;;;;5027350;28;20177;-45
2021/10/25 12:42:24;;;;;;;1.52;1.42;;;;;;;;;;5019052;28;20208;-45
2021/10/25 12:44:53;;;;;;;1.88;1.52;;;;;;;;;;5017688;28;20247;-45
2021/10/25 12:47:24;;;;;;;1.70;1.60;;;;;;;;;;5032467;28;20558;-45
2021/10/25 12:49:51;;;;;;;1.70;1.35;;;;;;;;;;5037333;28;20175;-45
2021/10/25 12:52:18;;;;;;;1.70;1.60;;;;;;;;;;5018140;28;20161;-45
2021/10/25 12:54:45;;;;;;;1.50;1.40;;;;;;;;;;5017416;28;20200;-45
2021/10/25 12:57:24;;;;;;;1.60;1.50;;;;;;;;;;5017920;28;20412;-46
2021/10/25 13:00:17;;;;;;;1.55;1.42;;;;;;;;;;5033285;28;20179;-45
2021/10/25 13:02:47;;;;;;;1.60;1.50;;;;;;;;;;5023941;28;20554;-45
2021/10/25 13:05:17;;;;;;;2.45;1.30;;;;;;;;;;5023344;28;20176;-45
2021/10/25 13:07:44;;;;;;;1.60;1.50;;;;;;;;;;5037793;28;20341;-45
2021/10/25 13:10:10;;;;;;;1.70;1.60;;;;;;;;;;5037008;28;20175;-45
2021/10/25 13:12:36;;;;;;;1.70;1.60;;;;;;;;;;5035130;28;20484;-45
2021/10/25 13:15:03;;;;;;;1.75;1.42;;;;;;;;;;5035531;28;20662;-45
2021/10/25 13:17:29;;;;;;;1.40;1.30;;;;;;;;;;5035363;28;20200;-45
2021/10/25 13:19:55;;;;;;;1.58;1.48;;;;;;;;;;5036823;28;20184;-45
2021/10/25 13:22:21;;;;;;;1.40;1.30;;;;;;;;;;5027950;28;20269;-45
2021/10/25 13:24:47;;;;;;;1.70;1.60;;;;;;;;;;5023372;28;20180;-45
2021/10/25 13:27:13;;;;;;;1.65;1.55;;;;;;;;;;5036947;28;20175;-45
2021/10/25 13:29:39;;;;;;;1.80;1.42;;;;;;;;;;5037151;28;20637;-45
2021/10/25 13:32:05;;;;;;;1.45;1.35;;;;;;;;;;5036992;28;20267;-45
2021/10/25 13:34:32;;;;;;;1.70;1.60;;;;;;;;;;5035903;28;20566;-45
2021/10/25 13:36:58;;;;;;;1.60;1.50;;;;;;;;;;5034059;28;20259;-45
2021/10/25 13:39:24;;;;;;;1.70;1.60;;;;;;;;;;5037122;28;20255;-45
2021/10/25 13:41:53;;;;;;;1.55;1.33;;;;;;;;;;5036935;28;20183;-45
2021/10/25 13:44:19;;;;;;;9.35;1.58;;;;;;;;;;5035911;28;20293;-45
2021/10/25 13:46:45;;;;;;;3.80;1.38;;;;;;;;;;5037807;28;20175;-45
2021/10/25 13:49:11;;;;;;;4.88;1.40;;;;;;;;;;5037416;28;20176;-45
2021/10/25 13:51:37;;;;;;;1.50;1.40;;;;;;;;;;5047774;28;20254;-45
2021/10/25 13:54:04;;;;;;;3.10;1.40;;;;;;;;;;5035966;28;20176;-45
2021/10/25 13:56:31;;;;;;;1.40;1.30;;;;;;;;;;5036059;28;20523;-46
2021/10/25 13:58:57;;;;;;;2.63;1.55;;;;;;;;;;5046897;28;20285;-46
2021/10/25 14:01:23;;;;;;;2.25;1.60;;;;;;;;;;5041961;28;20305;-45
2021/10/25 14:03:51;;;;;;;1.77;1.67;;;;;;;;;;5036618;28;20282;-46
2021/10/25 14:06:19;;;;;;;1.63;1.30;;;;;;;;;;5035819;28;20179;-46
2021/10/25 14:08:47;;;;;;;2.63;1.30;;;;;;;;;;5038183;28;20254;-46
2021/10/25 14:11:13;;;;;;;1.35;1.20;;;;;;;;;;5037438;28;20175;-46
2021/10/25 14:13:54;;;;;;;1.95;1.30;;;;;;;;;;5045031;28;20266;-45
2021/10/25 14:18:46;;;;;;;2.13;1.58;;;;;;;;;;5037570;28;20188;-46
2021/10/25 14:21:16;;;;;;;1.70;1.27;;;;;;;;;;5038686;28;20176;-46
2021/10/25 14:23:43;;;;;;;1.48;1.38;;;;;;;;;;5037407;28;20200;-45
2021/10/25 14:26:10;;;;;;;1.60;1.17;;;;;;;;;;5041821;28;20245;-45
2021/10/25 14:28:36;;;;;;;1.50;1.20;;;;;;;;;;5038393;28;20186;-45
2021/10/25 14:31:04;;;;;;;2.20;1.30;;;;;;;;;;5035914;28;20179;-45
2021/10/25 14:33:31;;;;;;;3.00;1.40;;;;;;;;;;5036676;28;20242;-45
2021/10/25 14:35:57;;;;;;;1.50;1.40;;;;;;;;;;5036025;28;20179;-45
2021/10/25 14:43:44;;;;;;;1.60;1.48;;;;;;;;;;5038750;28;20195;-45
2021/10/25 14:46:21;;;;;;;3.75;1.30;;;;;;;;;;5039373;28;20175;-45
2021/10/25 14:48:52;;;;;;;1.30;1.20;;;;;;;;;;5032924;28;20184;-45
2021/10/25 14:54:22;;;;;;;1.50;1.40;;;;;;;;;;5027462;28;20263;-45
2021/10/25 14:56:48;;;;;;;2.05;1.33;;;;;;;;;;5030383;28;20642;-45
2021/10/25 14:59:14;;;;;;;1.98;1.35;;;;;;;;;;5031647;28;20191;-45
2021/10/25 15:01:41;;;;;;;1.65;1.38;;;;;;;;;;5041259;28;20228;-45
2021/10/25 15:04:10;;;;;;;1.50;1.33;;;;;;;;;;5038976;28;20222;-45
2021/10/25 15:06:37;;;;;;;1.35;1.25;;;;;;;;;;5032289;28;20176;-45
2021/10/25 15:09:03;;;;;;;2.28;1.40;;;;;;;;;;5037086;28;20270;-45
2021/10/25 15:11:29;;;;;;;1.50;1.40;;;;;;;;;;5032776;28;20215;-45
2021/10/25 15:13:56;;;;;;;1.80;1.40;;;;;;;;;;5026891;28;20183;-45
2021/10/25 15:16:24;;;;;;;1.52;1.40;;;;;;;;;;5028266;28;20512;-45
2021/10/25 15:18:51;;;;;;;4.95;1.58;;;;;;;;;;5039495;28;20186;-45
2021/10/25 15:21:17;;;;;;;1.42;1.23;;;;;;;;;;5040301;28;20505;-45
2021/10/25 15:23:44;;;;;;;1.30;1.20;;;;;;;;;;5033435;28;20202;-45
2021/10/25 15:26:11;;;;;;;1.48;1.35;;;;;;;;;;5032028;28;20177;-45
2021/10/25 15:28:37;;;;;;;1.42;1.23;;;;;;;;;;5038947;28;20178;-45
2021/10/25 15:31:03;;;;;;;1.45;1.35;;;;;;;;;;5039116;28;20183;-46
2021/10/25 15:33:29;;;;;;;1.50;1.23;;;;;;;;;;5031966;28;20562;-45
2021/10/25 15:35:56;;;;;;;1.70;1.60;;;;;;;;;;5035915;28;20267;-45
2021/10/25 15:38:26;;;;;;;1.95;1.52;;;;;;;;;;5039247;28;20726;-45
2021/10/25 15:40:53;;;;;;;1.65;1.50;;;;;;;;;;5038768;28;20171;-45
2021/10/25 15:43:19;;;;;;;1.38;1.27;;;;;;;;;;5042839;28;20195;-46
2021/10/25 15:45:45;;;;;;;1.58;1.48;;;;;;;;;;5047055;28;20172;-46
2021/10/25 15:48:11;;;;;;;1.40;1.30;;;;;;;;;;5032668;28;20263;-45
2021/10/25 15:50:38;;;;;;;1.60;1.40;;;;;;;;;;5024217;28;20187;-45
2021/10/25 15:53:06;;;;;;;1.45;1.30;;;;;;;;;;5033992;28;20567;-45
2021/10/25 15:55:32;;;;;;;1.45;1.35;;;;;;;;;;5034327;28;20469;-45
2021/10/25 15:57:59;;;;;;;1.92;1.50;;;;;;;;;;5025566;28;20263;-45
2021/10/25 16:00:26;;;;;;;3.42;1.33;;;;;;;;;;5034336;28;20218;-45
2021/10/25 16:02:52;;;;;;;2.17;1.40;;;;;;;;;;5033584;28;20539;-45
2021/10/25 16:05:19;;;;;;;1.40;1.25;;;;;;;;;;5033892;28;20435;-45
2021/10/25 16:07:45;;;;;;;1.48;1.38;;;;;;;;;;5034482;28;20266;-45
2021/10/25 16:10:12;;;;;;;2.90;1.40;;;;;;;;;;5034234;28;20501;-45
2021/10/25 16:12:39;;;;;;;2.22;1.70;;;;;;;;;;5034350;28;20160;-45
2021/10/25 16:15:05;;;;;;;1.75;1.60;;;;;;;;;;5034041;28;20183;-45
2021/10/25 16:17:31;;;;;;;1.63;1.52;;;;;;;;;;5034506;28;20274;-45
2021/10/25 16:19:59;;;;;;;1.55;1.40;;;;;;;;;;5034436;28;20420;-45
2021/10/25 16:22:25;;;;;;;1.40;1.30;;;;;;;;;;5033450;28;20176;-45
2021/10/25 16:24:52;;;;;;;1.40;1.30;;;;;;;;;;5047420;28;20186;-46
2021/10/25 16:27:18;;;;;;;1.40;1.30;;;;;;;;;;5051410;28;20191;-45
2021/10/25 16:29:44;;;;;;;1.63;1.40;;;;;;;;;;5033524;28;20168;-45
2021/10/25 16:32:10;;;;;;;1.48;1.38;;;;;;;;;;5033944;28;20180;-45